Airfield :
LOGIN :

Register | Disclaimer

   EN    FR    IT 

 










Legend :    VFR   Marginal VFR   IFR   Intensive IFR   Very Intensive IFR
Visi :
Ceiling :
>= 8 km
>= 3000ft
5 to 8 km
1000 to 3000 ft
1500m to 5 km
500 to 1000 ft
800 to 1500m
200 to 500 ft
< 800m
< 200 ft
Symbols :   Thunderstorms  Fog  Heavy snow  Heavy precipitations  Wind > 20 kt
SIGMETs :     Misc.  Thunderstorms  Icing  Turbulence  Mountain Waves  Volcanic Ashes






- Airport Elevation : 66 ft
- IATA code : AOK


LGKP - Karpathos

CURRENT METAR :
  • 200130Z AUTO 31013KT //// // ////// 07/M01 Q1028 RE//

EXPIRED METARs :
  • 200100Z AUTO 31010KT //// // ////// 07/M00 Q1028 RE//
  • 200030Z AUTO 32008KT //// // ////// 07/M01 Q1028 RE//
  • 200000Z AUTO 31006KT 290V350 //// // ////// 07/M00 Q1028 RE//
  • 192330Z AUTO 33006KT //// // ////// 08/00 Q1028 RE//
  • 192300Z AUTO 33008KT //// // ////// 08/M00 Q1028 RE//

TAF TAF LGKP
Valid from the 20 at 00:00 until the 20 at 09:00 UTC


192300Z 2000/2009 34014G24KT 9999 BKN018



MET'MAP, your aeronautical weather chart ! - Copyright ORBIFLY December 2007 - Disclaimer

ORBIFLY MET'MAP TEAM :

Programming & Development : Alexandra Zaïnal
Concept & original design : Baudouin d'Aumeries
Assistance for programming : Marc-Olivier Méhu
Technical & hardware support : Manuel Goepfert

Contact : metmap@orbifly.com




SOURCES & CREDITS :

   NOAA